sensor_id;sensor_type;location;lat;lon;timestamp;pressure;altitude;pressure_sealevel;temperature;humidity
21633;BME280;48765;51.568;8.840;2022-08-01T00:01:25;98391.41;;;19.30;100.00
21633;BME280;48765;51.568;8.840;2022-08-01T00:03:52;98397.28;;;19.38;100.00
21633;BME280;48765;51.568;8.840;2022-08-01T00:06:19;98396.91;;;19.47;100.00
21633;BME280;48765;51.568;8.840;2022-08-01T00:08:46;98394.47;;;19.21;100.00
21633;BME280;48765;51.568;8.840;2022-08-01T00:11:13;98390.34;;;19.34;100.00
21633;BME280;48765;51.568;8.840;2022-08-01T00:13:41;98384.53;;;19.23;100.00
21633;BME280;48765;51.568;8.840;2022-08-01T00:16:08;98389.22;;;19.18;100.00
21633;BME280;48765;51.568;8.840;2022-08-01T00:18:35;98388.44;;;19.36;100.00
21633;BME280;48765;51.568;8.840;2022-08-01T00:21:02;98399.84;;;19.21;100.00
21633;BME280;48765;51.568;8.840;2022-08-01T00:23:29;98386.63;;;19.16;100.00
21633;BME280;48765;51.568;8.840;2022-08-01T00:25:56;98383.19;;;19.33;100.00
21633;BME280;48765;51.568;8.840;2022-08-01T00:28:23;98389.50;;;19.32;100.00
21633;BME280;48765;51.568;8.840;2022-08-01T00:30:51;98383.97;;;19.14;100.00
21633;BME280;48765;51.568;8.840;2022-08-01T00:33:18;98382.91;;;19.19;100.00
21633;BME280;48765;51.568;8.840;2022-08-01T00:35:45;98385.34;;;19.25;100.00
21633;BME280;48765;51.568;8.840;2022-08-01T00:38:12;98385.00;;;19.12;100.00
21633;BME280;48765;51.568;8.840;2022-08-01T00:40:39;98382.78;;;19.22;100.00
21633;BME280;48765;51.568;8.840;2022-08-01T00:43:06;98387.19;;;19.02;100.00
21633;BME280;48765;51.568;8.840;2022-08-01T00:45:33;98382.22;;;19.13;100.00
21633;BME280;48765;51.568;8.840;2022-08-01T00:48:01;98378.19;;;19.24;100.00
21633;BME280;48765;51.568;8.840;2022-08-01T00:50:28;98383.72;;;19.21;100.00
21633;BME280;48765;51.568;8.840;2022-08-01T00:52:55;98379.91;;;19.26;100.00
21633;BME280;48765;51.568;8.840;2022-08-01T00:55:22;98377.81;;;19.12;100.00
21633;BME280;48765;51.568;8.840;2022-08-01T00:57:49;98372.22;;;19.17;100.00
21633;BME280;48765;51.568;8.840;2022-08-01T01:00:16;98381.91;;;19.01;100.00
21633;BME280;48765;51.568;8.840;2022-08-01T01:02:43;98388.28;;;19.19;100.00
21633;BME280;48765;51.568;8.840;2022-08-01T01:05:12;98375.31;;;19.28;100.00
21633;BME280;48765;51.568;8.840;2022-08-01T01:07:40;98374.72;;;19.22;100.00
21633;BME280;48765;51.568;8.840;2022-08-01T01:10:12;98374.84;;;19.19;100.00
21633;BME280;48765;51.568;8.840;2022-08-01T01:12:42;98383.59;;;19.24;100.00
21633;BME280;48765;51.568;8.840;2022-08-01T01:15:13;98373.75;;;19.02;100.00
21633;BME280;48765;51.568;8.840;2022-08-01T01:17:44;98378.56;;;19.36;100.00
21633;BME280;48765;51.568;8.840;2022-08-01T01:20:13;98383.84;;;19.38;100.00
21633;BME280;48765;51.568;8.840;2022-08-01T01:22:53;98383.19;;;19.12;100.00
21633;BME280;48765;51.568;8.840;2022-08-01T01:25:26;98385.47;;;19.22;100.00
21633;BME280;48765;51.568;8.840;2022-08-01T01:28:02;98380.97;;;19.22;100.00
21633;BME280;48765;51.568;8.840;2022-08-01T01:30:34;98381.53;;;18.88;100.00
21633;BME280;48765;51.568;8.840;2022-08-01T01:33:03;98375.63;;;19.00;100.00
21633;BME280;48765;51.568;8.840;2022-08-01T01:35:32;98381.00;;;19.00;100.00
21633;BME280;48765;51.568;8.840;2022-08-01T01:38:01;98379.81;;;19.07;100.00
21633;BME280;48765;51.568;8.840;2022-08-01T01:40:32;98378.19;;;19.03;100.00
21633;BME280;48765;51.568;8.840;2022-08-01T01:43:00;98375.25;;;19.09;100.00
21633;BME280;48765;51.568;8.840;2022-08-01T01:45:27;98386.94;;;19.08;100.00
21633;BME280;48765;51.568;8.840;2022-08-01T01:47:56;98382.22;;;19.13;100.00
21633;BME280;48765;51.568;8.840;2022-08-01T01:50:23;98388.88;;;19.05;100.00
21633;BME280;48765;51.568;8.840;2022-08-01T01:52:51;98389.31;;;18.94;100.00
21633;BME280;48765;51.568;8.840;2022-08-01T01:55:19;98380.50;;;19.12;100.00
21633;BME280;48765;51.568;8.840;2022-08-01T01:57:47;98388.84;;;19.27;100.00
21633;BME280;48765;51.568;8.840;2022-08-01T02:00:15;98379.00;;;19.05;100.00
21633;BME280;48765;51.568;8.840;2022-08-01T02:02:43;98384.88;;;19.15;100.00
21633;BME280;48765;51.568;8.840;2022-08-01T02:05:12;98382.03;;;19.18;100.00
21633;BME280;48765;51.568;8.840;2022-08-01T02:07:39;98388.44;;;19.15;100.00
21633;BME280;48765;51.568;8.840;2022-08-01T02:10:07;98385.47;;;19.22;100.00
21633;BME280;48765;51.568;8.840;2022-08-01T02:12:36;98385.19;;;19.07;100.00
21633;BME280;48765;51.568;8.840;2022-08-01T02:15:04;98377.41;;;19.01;100.00
21633;BME280;48765;51.568;8.840;2022-08-01T02:17:32;98388.88;;;19.05;100.00
21633;BME280;48765;51.568;8.840;2022-08-01T02:20:00;98382.44;;;19.09;100.00
21633;BME280;48765;51.568;8.840;2022-08-01T02:22:29;98391.75;;;19.00;100.00
21633;BME280;48765;51.568;8.840;2022-08-01T02:24:59;98391.69;;;19.02;100.00
21633;BME280;48765;51.568;8.840;2022-08-01T02:27:28;98388.38;;;18.95;100.00
21633;BME280;48765;51.568;8.840;2022-08-01T02:29:57;98386.53;;;18.97;100.00
21633;BME280;48765;51.568;8.840;2022-08-01T02:32:26;98388.25;;;18.98;100.00
21633;BME280;48765;51.568;8.840;2022-08-01T02:34:54;98391.50;;;19.06;100.00
21633;BME280;48765;51.568;8.840;2022-08-01T02:37:22;98398.22;;;18.96;100.00
21633;BME280;48765;51.568;8.840;2022-08-01T02:39:52;98387.56;;;18.93;100.00
21633;BME280;48765;51.568;8.840;2022-08-01T02:42:20;98390.56;;;18.85;100.00
21633;BME280;48765;51.568;8.840;2022-08-01T02:44:49;98400.72;;;18.55;100.00
21633;BME280;48765;51.568;8.840;2022-08-01T02:47:16;98401.56;;;18.34;100.00
21633;BME280;48765;51.568;8.840;2022-08-01T02:49:46;98394.91;;;18.21;100.00
21633;BME280;48765;51.568;8.840;2022-08-01T02:52:15;98396.44;;;18.28;100.00
21633;BME280;48765;51.568;8.840;2022-08-01T02:54:43;98401.19;;;18.43;100.00
21633;BME280;48765;51.568;8.840;2022-08-01T02:57:13;98393.31;;;18.17;100.00
21633;BME280;48765;51.568;8.840;2022-08-01T02:59:41;98401.56;;;18.10;100.00
21633;BME280;48765;51.568;8.840;2022-08-01T03:02:08;98399.75;;;18.11;100.00
21633;BME280;48765;51.568;8.840;2022-08-01T03:04:36;98395.41;;;18.08;100.00
21633;BME280;48765;51.568;8.840;2022-08-01T03:07:05;98402.25;;;18.16;100.00
21633;BME280;48765;51.568;8.840;2022-08-01T03:09:45;98399.94;;;18.06;100.00
21633;BME280;48765;51.568;8.840;2022-08-01T03:12:15;98413.91;;;17.91;100.00
21633;BME280;48765;51.568;8.840;2022-08-01T03:14:43;98412.13;;;18.15;100.00
21633;BME280;48765;51.568;8.840;2022-08-01T03:17:11;98406.72;;;17.93;100.00
21633;BME280;48765;51.568;8.840;2022-08-01T03:19:38;98401.16;;;17.98;100.00
21633;BME280;48765;51.568;8.840;2022-08-01T03:22:06;98408.69;;;17.88;100.00
21633;BME280;48765;51.568;8.840;2022-08-01T03:24:35;98403.03;;;18.19;100.00
21633;BME280;48765;51.568;8.840;2022-08-01T03:27:03;98420.69;;;18.01;100.00
21633;BME280;48765;51.568;8.840;2022-08-01T03:29:32;98419.88;;;18.23;100.00
21633;BME280;48765;51.568;8.840;2022-08-01T03:31:59;98424.66;;;17.91;100.00
21633;BME280;48765;51.568;8.840;2022-08-01T03:34:27;98416.56;;;18.16;100.00
21633;BME280;48765;51.568;8.840;2022-08-01T03:36:55;98416.00;;;18.30;100.00
21633;BME280;48765;51.568;8.840;2022-08-01T03:39:25;98420.25;;;18.13;100.00
21633;BME280;48765;51.568;8.840;2022-08-01T03:41:54;98424.97;;;18.07;100.00
21633;BME280;48765;51.568;8.840;2022-08-01T03:44:23;98421.22;;;18.11;100.00
21633;BME280;48765;51.568;8.840;2022-08-01T03:46:54;98423.00;;;18.12;100.00
21633;BME280;48765;51.568;8.840;2022-08-01T03:49:23;98425.84;;;18.07;100.00
21633;BME280;48765;51.568;8.840;2022-08-01T03:51:52;98426.19;;;18.22;100.00
21633;BME280;48765;51.568;8.840;2022-08-01T03:54:21;98423.25;;;18.04;100.00
21633;BME280;48765;51.568;8.840;2022-08-01T03:56:51;98430.00;;;18.16;100.00
21633;BME280;48765;51.568;8.840;2022-08-01T03:59:18;98431.31;;;18.28;100.00
21633;BME280;48765;51.568;8.840;2022-08-01T04:01:45;98431.41;;;18.48;100.00
21633;BME280;48765;51.568;8.840;2022-08-01T04:04:14;98432.59;;;18.41;100.00
21633;BME280;48765;51.568;8.840;2022-08-01T04:06:41;98437.19;;;18.14;100.00
21633;BME280;48765;51.568;8.840;2022-08-01T04:09:09;98436.94;;;18.22;100.00
21633;BME280;48765;51.568;8.840;2022-08-01T04:11:37;98439.59;;;18.22;100.00
21633;BME280;48765;51.568;8.840;2022-08-01T04:14:04;98439.72;;;18.19;100.00
21633;BME280;48765;51.568;8.840;2022-08-01T04:16:31;98435.53;;;18.11;100.00
21633;BME280;48765;51.568;8.840;2022-08-01T04:18:58;98442.66;;;18.11;100.00
21633;BME280;48765;51.568;8.840;2022-08-01T04:21:27;98436.34;;;18.37;100.00
21633;BME280;48765;51.568;8.840;2022-08-01T04:23:56;98436.97;;;18.20;100.00
21633;BME280;48765;51.568;8.840;2022-08-01T04:26:24;98438.56;;;18.02;100.00
21633;BME280;48765;51.568;8.840;2022-08-01T04:28:52;98449.22;;;18.27;100.00
21633;BME280;48765;51.568;8.840;2022-08-01T04:31:20;98447.06;;;18.13;100.00
21633;BME280;48765;51.568;8.840;2022-08-01T04:33:51;98449.47;;;17.96;100.00
21633;BME280;48765;51.568;8.840;2022-08-01T04:36:20;98457.69;;;17.92;100.00
21633;BME280;48765;51.568;8.840;2022-08-01T04:38:52;98460.72;;;18.07;100.00
21633;BME280;48765;51.568;8.840;2022-08-01T04:41:21;98459.66;;;18.11;100.00
21633;BME280;48765;51.568;8.840;2022-08-01T04:43:49;98470.50;;;18.08;100.00
21633;BME280;48765;51.568;8.840;2022-08-01T04:46:17;98462.72;;;18.01;100.00
21633;BME280;48765;51.568;8.840;2022-08-01T04:48:44;98473.25;;;17.82;100.00
21633;BME280;48765;51.568;8.840;2022-08-01T04:51:12;98480.47;;;18.05;100.00
21633;BME280;48765;51.568;8.840;2022-08-01T04:53:40;98474.47;;;17.98;100.00
21633;BME280;48765;51.568;8.840;2022-08-01T04:56:09;98480.66;;;18.24;100.00
21633;BME280;48765;51.568;8.840;2022-08-01T04:58:38;98480.72;;;17.97;100.00
21633;BME280;48765;51.568;8.840;2022-08-01T05:01:05;98480.84;;;17.94;100.00
21633;BME280;48765;51.568;8.840;2022-08-01T05:03:32;98482.22;;;18.06;100.00
21633;BME280;48765;51.568;8.840;2022-08-01T05:06:00;98478.16;;;18.19;100.00
21633;BME280;48765;51.568;8.840;2022-08-01T05:08:27;98482.38;;;18.26;100.00
21633;BME280;48765;51.568;8.840;2022-08-01T05:10:54;98479.50;;;18.31;100.00
21633;BME280;48765;51.568;8.840;2022-08-01T05:13:22;98484.38;;;18.20;100.00
21633;BME280;48765;51.568;8.840;2022-08-01T05:15:49;98483.06;;;18.06;100.00
21633;BME280;48765;51.568;8.840;2022-08-01T05:18:17;98486.88;;;18.26;100.00
21633;BME280;48765;51.568;8.840;2022-08-01T05:20:44;98491.38;;;18.24;100.00
21633;BME280;48765;51.568;8.840;2022-08-01T05:23:12;98485.91;;;18.27;100.00
21633;BME280;48765;51.568;8.840;2022-08-01T05:25:39;98487.44;;;18.34;100.00
21633;BME280;48765;51.568;8.840;2022-08-01T05:28:06;98496.31;;;18.36;100.00
21633;BME280;48765;51.568;8.840;2022-08-01T05:30:34;98489.88;;;18.17;100.00
21633;BME280;48765;51.568;8.840;2022-08-01T05:33:01;98491.47;;;18.46;100.00
21633;BME280;48765;51.568;8.840;2022-08-01T05:35:28;98493.47;;;18.41;100.00
21633;BME280;48765;51.568;8.840;2022-08-01T05:37:55;98490.47;;;18.48;100.00
21633;BME280;48765;51.568;8.840;2022-08-01T05:40:22;98496.13;;;18.41;100.00
21633;BME280;48765;51.568;8.840;2022-08-01T05:42:49;98493.19;;;18.23;100.00
21633;BME280;48765;51.568;8.840;2022-08-01T05:45:16;98492.69;;;18.37;100.00
21633;BME280;48765;51.568;8.840;2022-08-01T05:47:44;98494.84;;;18.51;100.00
21633;BME280;48765;51.568;8.840;2022-08-01T05:50:11;98490.09;;;18.34;100.00
21633;BME280;48765;51.568;8.840;2022-08-01T05:52:38;98493.81;;;18.55;100.00
21633;BME280;48765;51.568;8.840;2022-08-01T05:55:06;98495.47;;;18.34;100.00
21633;BME280;48765;51.568;8.840;2022-08-01T05:57:33;98502.72;;;18.32;100.00
21633;BME280;48765;51.568;8.840;2022-08-01T06:00:00;98511.72;;;18.54;100.00
21633;BME280;48765;51.568;8.840;2022-08-01T06:02:28;98509.94;;;18.53;100.00
21633;BME280;48765;51.568;8.840;2022-08-01T06:04:56;98505.06;;;18.41;100.00
21633;BME280;48765;51.568;8.840;2022-08-01T06:07:23;98510.19;;;18.47;100.00
21633;BME280;48765;51.568;8.840;2022-08-01T06:09:50;98511.13;;;18.23;100.00
21633;BME280;48765;51.568;8.840;2022-08-01T06:12:17;98517.88;;;18.33;100.00
21633;BME280;48765;51.568;8.840;2022-08-01T06:14:44;98514.50;;;18.51;100.00
21633;BME280;48765;51.568;8.840;2022-08-01T06:17:11;98521.88;;;18.46;100.00
21633;BME280;48765;51.568;8.840;2022-08-01T06:19:38;98523.16;;;18.36;100.00
21633;BME280;48765;51.568;8.840;2022-08-01T06:22:06;98522.44;;;18.31;100.00
21633;BME280;48765;51.568;8.840;2022-08-01T06:24:33;98525.13;;;18.31;100.00
21633;BME280;48765;51.568;8.840;2022-08-01T06:27:01;98524.56;;;18.46;100.00
21633;BME280;48765;51.568;8.840;2022-08-01T06:29:29;98530.38;;;18.34;100.00
21633;BME280;48765;51.568;8.840;2022-08-01T06:31:56;98527.00;;;18.52;100.00
21633;BME280;48765;51.568;8.840;2022-08-01T06:34:23;98528.91;;;18.74;100.00
21633;BME280;48765;51.568;8.840;2022-08-01T06:36:50;98529.66;;;18.77;100.00
21633;BME280;48765;51.568;8.840;2022-08-01T06:39:18;98526.19;;;18.97;100.00
21633;BME280;48765;51.568;8.840;2022-08-01T06:41:45;98531.78;;;18.91;100.00
21633;BME280;48765;51.568;8.840;2022-08-01T06:44:13;98530.53;;;18.78;100.00
21633;BME280;48765;51.568;8.840;2022-08-01T06:46:40;98531.94;;;18.88;100.00
21633;BME280;48765;51.568;8.840;2022-08-01T06:49:07;98531.28;;;18.81;100.00
21633;BME280;48765;51.568;8.840;2022-08-01T06:51:34;98535.56;;;18.87;100.00
21633;BME280;48765;51.568;8.840;2022-08-01T06:54:01;98524.06;;;18.83;100.00
21633;BME280;48765;51.568;8.840;2022-08-01T06:56:29;98530.03;;;18.90;100.00
21633;BME280;48765;51.568;8.840;2022-08-01T06:58:56;98531.41;;;18.78;100.00
21633;BME280;48765;51.568;8.840;2022-08-01T07:01:26;98515.22;;;18.80;100.00
21633;BME280;48765;51.568;8.840;2022-08-01T07:03:53;98527.97;;;18.75;100.00
21633;BME280;48765;51.568;8.840;2022-08-01T07:06:21;98521.03;;;18.69;100.00
21633;BME280;48765;51.568;8.840;2022-08-01T07:08:47;98520.78;;;18.75;100.00
21633;BME280;48765;51.568;8.840;2022-08-01T07:11:14;98517.69;;;19.08;100.00
21633;BME280;48765;51.568;8.840;2022-08-01T07:13:43;98514.06;;;19.09;100.00
21633;BME280;48765;51.568;8.840;2022-08-01T07:16:11;98514.63;;;18.95;100.00
21633;BME280;48765;51.568;8.840;2022-08-01T07:18:38;98514.31;;;19.03;100.00
21633;BME280;48765;51.568;8.840;2022-08-01T07:21:05;98511.22;;;19.35;100.00
21633;BME280;48765;51.568;8.840;2022-08-01T07:23:33;98503.50;;;19.48;100.00
21633;BME280;48765;51.568;8.840;2022-08-01T07:26:00;98520.09;;;19.15;100.00
21633;BME280;48765;51.568;8.840;2022-08-01T07:28:27;98516.72;;;19.10;100.00
21633;BME280;48765;51.568;8.840;2022-08-01T07:30:56;98516.78;;;19.31;100.00
21633;BME280;48765;51.568;8.840;2022-08-01T07:33:23;98522.34;;;19.26;100.00
21633;BME280;48765;51.568;8.840;2022-08-01T07:35:50;98520.94;;;19.38;100.00
21633;BME280;48765;51.568;8.840;2022-08-01T07:38:17;98525.84;;;19.72;100.00
21633;BME280;48765;51.568;8.840;2022-08-01T07:40:44;98524.63;;;19.57;100.00
21633;BME280;48765;51.568;8.840;2022-08-01T07:43:11;98529.03;;;19.80;100.00
21633;BME280;48765;51.568;8.840;2022-08-01T07:45:38;98527.66;;;19.92;100.00
21633;BME280;48765;51.568;8.840;2022-08-01T07:48:08;98526.44;;;19.99;100.00
21633;BME280;48765;51.568;8.840;2022-08-01T07:50:36;98534.66;;;19.96;100.00
21633;BME280;48765;51.568;8.840;2022-08-01T07:53:03;98539.31;;;19.71;100.00
21633;BME280;48765;51.568;8.840;2022-08-01T07:55:30;98535.28;;;19.60;100.00
21633;BME280;48765;51.568;8.840;2022-08-01T07:57:57;98537.13;;;19.58;100.00
21633;BME280;48765;51.568;8.840;2022-08-01T08:00:24;98540.34;;;19.68;100.00
21633;BME280;48765;51.568;8.840;2022-08-01T08:02:52;98548.34;;;19.26;100.00
21633;BME280;48765;51.568;8.840;2022-08-01T08:05:21;98552.19;;;19.19;100.00
21633;BME280;48765;51.568;8.840;2022-08-01T08:07:48;98547.97;;;19.35;100.00
21633;BME280;48765;51.568;8.840;2022-08-01T08:10:15;98560.84;;;19.27;100.00
21633;BME280;48765;51.568;8.840;2022-08-01T08:12:42;98547.97;;;19.35;100.00
21633;BME280;48765;51.568;8.840;2022-08-01T08:15:11;98551.38;;;19.62;100.00
21633;BME280;48765;51.568;8.840;2022-08-01T08:17:38;98547.59;;;19.44;100.00
21633;BME280;48765;51.568;8.840;2022-08-01T08:20:05;98555.53;;;19.69;100.00
21633;BME280;48765;51.568;8.840;2022-08-01T08:22:34;98554.22;;;19.57;100.00
21633;BME280;48765;51.568;8.840;2022-08-01T08:25:01;98551.88;;;20.12;100.00
21633;BME280;48765;51.568;8.840;2022-08-01T08:27:28;98548.84;;;20.20;100.00
21633;BME280;48765;51.568;8.840;2022-08-01T08:29:55;98551.00;;;20.12;100.00
21633;BME280;48765;51.568;8.840;2022-08-01T08:32:22;98562.06;;;19.84;100.00
21633;BME280;48765;51.568;8.840;2022-08-01T08:34:49;98557.72;;;20.02;100.00
21633;BME280;48765;51.568;8.840;2022-08-01T08:37:16;98556.53;;;19.66;100.00
21633;BME280;48765;51.568;8.840;2022-08-01T08:39:45;98555.91;;;20.02;100.00
21633;BME280;48765;51.568;8.840;2022-08-01T08:42:11;98559.47;;;19.82;100.00
21633;BME280;48765;51.568;8.840;2022-08-01T08:44:40;98584.00;;;19.07;100.00
21633;BME280;48765;51.568;8.840;2022-08-01T08:47:07;98579.22;;;18.69;100.00
21633;BME280;48765;51.568;8.840;2022-08-01T08:49:35;98588.16;;;18.68;100.00
21633;BME280;48765;51.568;8.840;2022-08-01T08:52:02;98583.53;;;18.48;100.00
21633;BME280;48765;51.568;8.840;2022-08-01T08:54:30;98585.34;;;18.47;100.00
21633;BME280;48765;51.568;8.840;2022-08-01T08:56:59;98593.91;;;19.05;100.00
21633;BME280;48765;51.568;8.840;2022-08-01T08:59:26;98594.78;;;18.59;100.00
21633;BME280;48765;51.568;8.840;2022-08-01T09:01:53;98597.63;;;18.54;100.00
21633;BME280;48765;51.568;8.840;2022-08-01T09:04:21;98599.13;;;18.61;100.00
21633;BME280;48765;51.568;8.840;2022-08-01T09:06:48;98599.91;;;18.65;100.00
21633;BME280;48765;51.568;8.840;2022-08-01T09:09:15;98606.16;;;18.65;100.00
21633;BME280;48765;51.568;8.840;2022-08-01T09:11:42;98612.97;;;18.76;100.00
21633;BME280;48765;51.568;8.840;2022-08-01T09:14:11;98606.53;;;18.80;100.00
21633;BME280;48765;51.568;8.840;2022-08-01T09:16:40;98617.22;;;18.56;100.00
21633;BME280;48765;51.568;8.840;2022-08-01T09:19:08;98610.97;;;19.04;100.00
21633;BME280;48765;51.568;8.840;2022-08-01T09:21:35;98617.19;;;18.83;100.00
21633;BME280;48765;51.568;8.840;2022-08-01T09:24:02;98618.69;;;18.90;100.00
21633;BME280;48765;51.568;8.840;2022-08-01T09:26:32;98619.16;;;19.25;100.00
21633;BME280;48765;51.568;8.840;2022-08-01T09:29:00;98612.44;;;19.58;100.00
21633;BME280;48765;51.568;8.840;2022-08-01T09:31:38;98613.09;;;20.07;100.00
21633;BME280;48765;51.568;8.840;2022-08-01T09:34:05;98610.50;;;19.84;100.00
21633;BME280;48765;51.568;8.840;2022-08-01T09:36:43;98616.22;;;20.19;100.00
21633;BME280;48765;51.568;8.840;2022-08-01T09:39:14;98608.94;;;20.21;100.00
21633;BME280;48765;51.568;8.840;2022-08-01T09:41:41;98606.22;;;20.41;100.00
21633;BME280;48765;51.568;8.840;2022-08-01T09:44:08;98606.03;;;20.46;100.00
21633;BME280;48765;51.568;8.840;2022-08-01T09:46:36;98617.69;;;20.26;100.00
21633;BME280;48765;51.568;8.840;2022-08-01T09:49:14;98606.22;;;20.00;100.00
21633;BME280;48765;51.568;8.840;2022-08-01T09:51:52;98599.34;;;19.93;100.00
21633;BME280;48765;51.568;8.840;2022-08-01T09:54:27;98605.25;;;20.64;100.00
21633;BME280;48765;51.568;8.840;2022-08-01T09:56:54;98611.31;;;20.88;100.00
21633;BME280;48765;51.568;8.840;2022-08-01T09:59:34;98603.38;;;21.43;100.00
21633;BME280;48765;51.568;8.840;2022-08-01T10:02:02;98607.47;;;21.33;100.00
21633;BME280;48765;51.568;8.840;2022-08-01T10:04:29;98605.44;;;20.39;100.00
21633;BME280;48765;51.568;8.840;2022-08-01T10:07:03;98609.28;;;20.93;100.00
21633;BME280;48765;51.568;8.840;2022-08-01T10:09:32;98611.84;;;20.96;100.00
21633;BME280;48765;51.568;8.840;2022-08-01T10:11:59;98610.63;;;21.03;100.00
21633;BME280;48765;51.568;8.840;2022-08-01T10:14:26;98609.91;;;21.18;100.00
21633;BME280;48765;51.568;8.840;2022-08-01T10:16:55;98610.78;;;20.61;100.00
21633;BME280;48765;51.568;8.840;2022-08-01T10:19:25;98612.59;;;20.60;100.00
21633;BME280;48765;51.568;8.840;2022-08-01T10:21:52;98607.63;;;20.90;100.00
21633;BME280;48765;51.568;8.840;2022-08-01T10:24:19;98605.94;;;20.49;100.00
21633;BME280;48765;51.568;8.840;2022-08-01T10:26:47;98612.84;;;20.75;100.00
21633;BME280;48765;51.568;8.840;2022-08-01T10:29:15;98614.66;;;21.13;100.00
21633;BME280;48765;51.568;8.840;2022-08-01T10:31:43;98621.47;;;21.02;100.00
21633;BME280;48765;51.568;8.840;2022-08-01T10:34:10;98612.38;;;21.04;100.00
21633;BME280;48765;51.568;8.840;2022-08-01T10:36:39;98615.97;;;21.61;100.00
21633;BME280;48765;51.568;8.840;2022-08-01T10:39:06;98617.31;;;20.95;100.00
21633;BME280;48765;51.568;8.840;2022-08-01T10:41:36;98619.38;;;21.08;100.00
21633;BME280;48765;51.568;8.840;2022-08-01T10:44:05;98618.06;;;21.17;100.00
21633;BME280;48765;51.568;8.840;2022-08-01T10:46:32;98601.69;;;20.43;100.00
21633;BME280;48765;51.568;8.840;2022-08-01T10:49:01;98609.94;;;20.18;100.00
21633;BME280;48765;51.568;8.840;2022-08-01T10:51:29;98624.84;;;20.67;100.00
21633;BME280;48765;51.568;8.840;2022-08-01T10:53:58;98623.63;;;20.54;100.00
21633;BME280;48765;51.568;8.840;2022-08-01T10:56:38;98630.59;;;20.79;100.00
21633;BME280;48765;51.568;8.840;2022-08-01T10:59:05;98628.06;;;20.76;100.00
21633;BME280;48765;51.568;8.840;2022-08-01T11:01:32;98629.56;;;20.62;100.00
21633;BME280;48765;51.568;8.840;2022-08-01T11:04:03;98628.38;;;21.07;100.00
21633;BME280;48765;51.568;8.840;2022-08-01T11:09:19;98628.03;;;20.96;100.00
21633;BME280;48765;51.568;8.840;2022-08-01T11:11:56;98631.50;;;20.59;100.00
21633;BME280;48765;51.568;8.840;2022-08-01T11:14:24;98631.91;;;20.50;100.00
21633;BME280;48765;51.568;8.840;2022-08-01T11:16:51;98623.19;;;20.84;100.00
21633;BME280;48765;51.568;8.840;2022-08-01T11:19:18;98632.03;;;20.47;100.00
21633;BME280;48765;51.568;8.840;2022-08-01T11:21:57;98623.91;;;20.48;100.00
21633;BME280;48765;51.568;8.840;2022-08-01T11:27:24;98627.53;;;20.67;100.00
21633;BME280;48765;51.568;8.840;2022-08-01T11:32:32;98633.72;;;20.90;100.00
21633;BME280;48765;51.568;8.840;2022-08-01T11:34:59;98636.53;;;20.46;100.00
21633;BME280;48765;51.568;8.840;2022-08-01T11:37:27;98634.78;;;20.04;100.00
21633;BME280;48765;51.568;8.840;2022-08-01T11:42:38;98629.75;;;20.58;100.00
21633;BME280;48765;51.568;8.840;2022-08-01T11:45:05;98631.69;;;20.75;100.00
21633;BME280;48765;51.568;8.840;2022-08-01T11:47:44;98630.69;;;20.77;100.00
21633;BME280;48765;51.568;8.840;2022-08-01T11:52:57;98615.69;;;20.72;100.00
21633;BME280;48765;51.568;8.840;2022-08-01T11:55:25;98622.06;;;20.89;100.00
21633;BME280;48765;51.568;8.840;2022-08-01T11:57:59;98619.38;;;20.89;100.00
21633;BME280;48765;51.568;8.840;2022-08-01T12:00:26;98624.91;;;21.05;100.00
21633;BME280;48765;51.568;8.840;2022-08-01T12:02:56;98629.31;;;21.64;100.00
21633;BME280;48765;51.568;8.840;2022-08-01T12:05:24;98622.91;;;21.48;100.00
21633;BME280;48765;51.568;8.840;2022-08-01T12:07:52;98628.34;;;21.65;100.00
21633;BME280;48765;51.568;8.840;2022-08-01T12:10:20;98619.13;;;21.33;100.00
21633;BME280;48765;51.568;8.840;2022-08-01T12:12:48;98634.72;;;21.82;100.00
21633;BME280;48765;51.568;8.840;2022-08-01T12:15:18;98633.09;;;21.23;100.00
21633;BME280;48765;51.568;8.840;2022-08-01T12:17:46;98634.44;;;21.12;100.00
21633;BME280;48765;51.568;8.840;2022-08-01T12:20:14;98631.84;;;21.49;100.00
21633;BME280;48765;51.568;8.840;2022-08-01T12:22:41;98632.81;;;21.48;100.00
21633;BME280;48765;51.568;8.840;2022-08-01T12:25:10;98638.63;;;21.57;100.00
21633;BME280;48765;51.568;8.840;2022-08-01T12:27:38;98631.69;;;22.07;100.00
21633;BME280;48765;51.568;8.840;2022-08-01T12:30:06;98629.13;;;22.23;100.00
21633;BME280;48765;51.568;8.840;2022-08-01T12:32:35;98630.19;;;21.27;100.00
21633;BME280;48765;51.568;8.840;2022-08-01T12:35:03;98638.97;;;21.68;100.00
21633;BME280;48765;51.568;8.840;2022-08-01T12:37:31;98634.97;;;21.21;100.00
21633;BME280;48765;51.568;8.840;2022-08-01T12:39:58;98639.63;;;21.17;100.00
21633;BME280;48765;51.568;8.840;2022-08-01T12:42:25;98642.94;;;21.42;100.00
21633;BME280;48765;51.568;8.840;2022-08-01T12:44:54;98633.09;;;21.60;100.00
21633;BME280;48765;51.568;8.840;2022-08-01T12:47:21;98648.47;;;21.58;100.00
21633;BME280;48765;51.568;8.840;2022-08-01T12:49:50;98644.06;;;20.79;100.00
21633;BME280;48765;51.568;8.840;2022-08-01T12:52:17;98649.53;;;20.77;100.00
21633;BME280;48765;51.568;8.840;2022-08-01T12:55:00;98641.72;;;20.91;100.00
21633;BME280;48765;51.568;8.840;2022-08-01T12:57:27;98641.22;;;21.21;100.00
21633;BME280;48765;51.568;8.840;2022-08-01T13:00:04;98646.91;;;21.15;100.00
21633;BME280;48765;51.568;8.840;2022-08-01T13:02:32;98652.25;;;21.35;100.00
21633;BME280;48765;51.568;8.840;2022-08-01T13:05:00;98650.16;;;21.61;100.00
21633;BME280;48765;51.568;8.840;2022-08-01T13:07:34;98644.41;;;21.31;100.00
21633;BME280;48765;51.568;8.840;2022-08-01T13:10:02;98643.72;;;21.63;100.00